Time;durP1;ratioP1;P1;durP2;ratioP2;P2;SDS_P1;SDS_P2;PMS_P1;PMS_P2;Temp;Humidity;BMP_temperature;BMP_pressure;BME280_temperature;BME280_humidity;BME280_pressure;Samples;Min_cycle;Max_cycle;Signal;HPM_P1;HPM_P2
2021/08/22 00:02:00;;;;;;;10.07;8.95;;;18.70;99.90;;;;;;5027846;28;20516;-81
2021/08/22 00:04:28;;;;;;;10.02;9.00;;;18.70;99.90;;;;;;5017673;28;20270;-83
2021/08/22 00:06:55;;;;;;;8.80;8.00;;;18.70;99.90;;;;;;5008606;28;20294;-82
2021/08/22 00:09:22;;;;;;;11.23;8.20;;;18.70;99.90;;;;;;5009472;28;20614;-82
2021/08/22 00:11:48;;;;;;;9.00;8.10;;;18.70;99.90;;;;;;5008242;28;20595;-81
2021/08/22 00:14:15;;;;;;;8.98;8.07;;;18.70;99.90;;;;;;5025161;28;20203;-80
2021/08/22 00:16:42;;;;;;;9.35;8.45;;;18.70;99.90;;;;;;5027808;28;20517;-81
2021/08/22 00:19:09;;;;;;;9.95;8.93;;;18.70;99.90;;;;;;5027727;28;20230;-82
2021/08/22 00:21:37;;;;;;;11.25;10.20;;;18.70;99.90;;;;;;5023397;28;20234;-82
2021/08/22 00:24:04;;;;;;;10.07;9.00;;;18.70;99.90;;;;;;5007583;28;20223;-82
2021/08/22 00:26:31;;;;;;;9.18;8.02;;;18.70;99.90;;;;;;5008508;28;20207;-81
2021/08/22 00:28:58;;;;;;;12.80;10.32;;;18.70;99.90;;;;;;5010327;28;20211;-84
2021/08/22 00:31:25;;;;;;;10.45;9.32;;;18.60;99.90;;;;;;5011241;28;20223;-83
2021/08/22 00:33:51;;;;;;;9.30;8.43;;;18.60;99.90;;;;;;5011604;28;20202;-85
2021/08/22 00:36:18;;;;;;;10.60;9.50;;;18.60;99.90;;;;;;5030397;28;20207;-86
2021/08/22 00:38:47;;;;;;;11.90;10.80;;;18.60;99.90;;;;;;5028249;28;20199;-80
2021/08/22 00:41:14;;;;;;;10.40;9.40;;;18.60;99.90;;;;;;5029433;28;20249;-79
2021/08/22 00:43:42;;;;;;;11.68;10.48;;;18.60;99.90;;;;;;5024408;28;20211;-84
2021/08/22 00:46:10;;;;;;;10.60;9.50;;;18.60;99.90;;;;;;5034896;23;20654;-82
2021/08/22 00:48:39;;;;;;;11.85;10.63;;;18.60;99.90;;;;;;5029835;28;20202;-86
2021/08/22 00:51:06;;;;;;;10.23;9.23;;;18.50;99.90;;;;;;5027654;28;20724;-82
2021/08/22 00:53:33;;;;;;;9.77;8.88;;;18.50;99.90;;;;;;5029383;28;20209;-81
2021/08/22 00:56:04;;;;;;;12.65;10.07;;;18.50;99.90;;;;;;5015441;28;20214;-81
2021/08/22 00:58:31;;;;;;;11.88;10.68;;;18.50;99.90;;;;;;5030169;28;20198;-84
2021/08/22 01:00:58;;;;;;;13.23;11.68;;;18.50;99.90;;;;;;5029470;28;20230;-82
2021/08/22 01:03:35;;;;;;;11.50;10.40;;;18.50;99.90;;;;;;5029504;28;20588;-83
2021/08/22 01:06:08;;;;;;;14.43;12.90;;;18.50;99.90;;;;;;5021844;28;20218;-82
2021/08/22 01:08:39;;;;;;;12.18;10.80;;;18.50;99.90;;;;;;5009732;28;20200;-81
2021/08/22 01:11:14;;;;;;;11.55;10.32;;;18.40;99.90;;;;;;5010248;28;20194;-82
2021/08/22 01:13:44;;;;;;;11.93;10.73;;;18.50;99.90;;;;;;5008516;28;20187;-83
2021/08/22 01:16:13;;;;;;;12.13;10.93;;;18.40;99.90;;;;;;5017578;28;20207;-82
2021/08/22 01:18:42;;;;;;;10.70;9.57;;;18.40;99.90;;;;;;5028538;28;20195;-82
2021/08/22 01:21:12;;;;;;;10.63;9.50;;;18.40;99.90;;;;;;5026984;28;20253;-82
2021/08/22 01:23:44;;;;;;;8.07;7.22;;;18.40;99.90;;;;;;5027744;28;20210;-84
2021/08/22 01:26:14;;;;;;;8.65;7.32;;;18.40;99.90;;;;;;5012967;28;20260;-81
2021/08/22 01:28:43;;;;;;;8.75;7.88;;;18.40;99.90;;;;;;5026240;28;20595;-82
2021/08/22 01:31:15;;;;;;;7.72;6.18;;;18.40;99.90;;;;;;5010116;28;20219;-81
2021/08/22 01:33:43;;;;;;;6.18;5.57;;;18.40;99.90;;;;;;4989577;28;20826;-83
2021/08/22 01:36:11;;;;;;;7.50;6.78;;;18.40;99.90;;;;;;4987198;28;20511;-80
2021/08/22 01:38:39;;;;;;;7.50;6.30;;;18.40;99.90;;;;;;4987607;28;20204;-80
2021/08/22 01:41:06;;;;;;;10.40;9.50;;;18.40;99.90;;;;;;4986151;28;20319;-80
2021/08/22 01:43:34;;;;;;;10.18;9.18;;;18.30;99.90;;;;;;4988934;28;20223;-83
2021/08/22 01:46:02;;;;;;;7.95;7.25;;;18.30;99.90;;;;;;4989827;28;20247;-81
2021/08/22 01:48:29;;;;;;;11.90;10.65;;;18.30;99.90;;;;;;4989396;28;20203;-82
2021/08/22 01:50:59;;;;;;;9.60;8.80;;;18.30;99.90;;;;;;4988838;28;20208;-83
2021/08/22 01:53:26;;;;;;;10.25;9.35;;;18.30;99.90;;;;;;4990152;28;20219;-81
2021/08/22 01:55:54;;;;;;;9.35;8.52;;;18.30;99.90;;;;;;4988157;28;20204;-81
2021/08/22 01:58:21;;;;;;;12.15;10.95;;;18.30;99.90;;;;;;4988248;28;20330;-80
2021/08/22 02:00:48;;;;;;;14.30;12.93;;;18.30;99.90;;;;;;4988231;28;20310;-83
2021/08/22 02:03:22;;;;;;;13.85;12.55;;;18.30;99.90;;;;;;4988307;28;20218;-83
2021/08/22 02:05:52;;;;;;;14.73;13.10;;;18.30;99.90;;;;;;4988378;28;20664;-81
2021/08/22 02:08:26;;;;;;;15.32;13.77;;;18.30;99.90;;;;;;4988368;28;20219;-80
2021/08/22 02:11:01;;;;;;;14.10;12.70;;;18.20;99.90;;;;;;4986600;28;20195;-81
2021/08/22 02:13:33;;;;;;;15.90;14.20;;;18.20;99.90;;;;;;4987696;28;20491;-81
2021/08/22 02:16:01;;;;;;;12.68;11.38;;;18.30;99.90;;;;;;4987504;28;20786;-81
2021/08/22 02:18:30;;;;;;;11.85;10.40;;;18.20;99.90;;;;;;4986517;28;20208;-81
2021/08/22 02:20:58;;;;;;;11.18;10.10;;;18.20;99.90;;;;;;4986793;28;20635;-83
2021/08/22 02:23:26;;;;;;;8.07;7.38;;;18.10;99.90;;;;;;4987567;28;20584;-82
2021/08/22 02:25:53;;;;;;;7.68;6.93;;;18.10;99.90;;;;;;5008573;23;20241;-81
2021/08/22 02:28:21;;;;;;;6.55;5.95;;;18.00;99.90;;;;;;5046217;28;20625;-80
2021/08/22 02:30:51;;;;;;;6.38;5.78;;;18.00;99.90;;;;;;5029615;28;20234;-85
2021/08/22 02:33:18;;;;;;;6.10;5.45;;;18.00;99.90;;;;;;5006330;28;20207;-82
2021/08/22 02:35:45;;;;;;;5.72;5.22;;;17.90;99.90;;;;;;5006503;28;20219;-82
2021/08/22 02:38:12;;;;;;;4.70;4.30;;;17.90;99.90;;;;;;5007051;28;20207;-80
2021/08/22 02:40:40;;;;;;;5.57;4.85;;;17.90;99.90;;;;;;5007049;28;20599;-80
2021/08/22 02:43:07;;;;;;;4.60;4.30;;;17.90;99.90;;;;;;5006093;28;20215;-80
2021/08/22 02:45:34;;;;;;;5.35;4.85;;;17.90;99.90;;;;;;5007209;28;20191;-80
2021/08/22 02:48:01;;;;;;;5.30;4.38;;;17.80;99.90;;;;;;5006197;28;20493;-82
2021/08/22 02:50:29;;;;;;;5.32;4.82;;;17.80;99.90;;;;;;5007581;28;20219;-83
2021/08/22 02:52:56;;;;;;;4.93;4.35;;;17.80;99.90;;;;;;5006232;28;21096;-82
2021/08/22 02:55:23;;;;;;;4.88;4.47;;;17.80;99.90;;;;;;5006516;28;20218;-80
2021/08/22 02:57:52;;;;;;;6.07;5.55;;;17.70;99.90;;;;;;5006512;28;20210;-81
2021/08/22 03:00:19;;;;;;;5.38;4.57;;;17.70;99.90;;;;;;5010418;28;20206;-80
2021/08/22 03:02:45;;;;;;;6.35;5.75;;;17.60;99.90;;;;;;5025108;28;20264;-80
2021/08/22 03:05:12;;;;;;;4.30;3.95;;;17.60;99.90;;;;;;5033565;28;20210;-84
2021/08/22 03:07:39;;;;;;;5.22;4.72;;;17.60;99.90;;;;;;5022733;28;20207;-82
2021/08/22 03:10:07;;;;;;;5.90;5.30;;;17.60;99.90;;;;;;5009666;28;20241;-80
2021/08/22 03:12:33;;;;;;;6.10;4.63;;;17.70;99.90;;;;;;5010078;28;20199;-85
2021/08/22 03:15:03;;;;;;;6.55;4.15;;;17.60;99.90;;;;;;5007235;28;20207;-83
2021/08/22 03:17:30;;;;;;;4.50;4.10;;;17.60;99.90;;;;;;5007156;28;20222;-83
2021/08/22 03:19:57;;;;;;;4.80;4.40;;;17.60;99.90;;;;;;5005766;28;20511;-84
2021/08/22 03:22:24;;;;;;;5.50;4.88;;;17.60;99.90;;;;;;5008186;28;20227;-80
2021/08/22 03:24:51;;;;;;;5.38;4.97;;;17.70;99.90;;;;;;5006434;28;20604;-80
2021/08/22 03:27:17;;;;;;;5.50;5.00;;;17.70;99.90;;;;;;5006390;28;20234;-81
2021/08/22 03:29:44;;;;;;;5.63;5.13;;;17.70;99.90;;;;;;5012680;28;20229;-84
2021/08/22 03:32:12;;;;;;;6.32;5.78;;;17.70;99.90;;;;;;5027281;28;20202;-81
2021/08/22 03:34:39;;;;;;;5.35;4.90;;;17.70;99.90;;;;;;5026098;28;20197;-82
2021/08/22 03:37:07;;;;;;;5.72;5.22;;;17.70;99.90;;;;;;5027067;28;20214;-79
2021/08/22 03:39:34;;;;;;;5.45;4.82;;;17.70;99.90;;;;;;5027777;28;20195;-79
2021/08/22 03:42:00;;;;;;;5.38;4.90;;;17.70;99.90;;;;;;5025912;28;20234;-85
2021/08/22 03:44:27;;;;;;;6.82;6.22;;;17.70;99.90;;;;;;5018377;28;20203;-81
2021/08/22 03:46:54;;;;;;;6.25;5.63;;;17.70;99.90;;;;;;5006828;28;20214;-80
2021/08/22 03:49:22;;;;;;;6.38;5.85;;;17.60;99.90;;;;;;5005677;28;20211;-80
2021/08/22 03:51:49;;;;;;;7.90;7.13;;;17.60;99.90;;;;;;5006827;28;20214;-84
2021/08/22 03:54:16;;;;;;;6.03;5.50;;;17.60;99.90;;;;;;5007974;28;20200;-84
2021/08/22 03:56:42;;;;;;;6.57;5.97;;;17.60;99.90;;;;;;5005699;28;20214;-81
2021/08/22 03:59:09;;;;;;;5.95;5.35;;;17.60;99.90;;;;;;5006739;28;20207;-80
2021/08/22 04:01:36;;;;;;;11.10;6.00;;;17.60;99.90;;;;;;5005911;28;20227;-82
2021/08/22 04:04:05;;;;;;;5.88;5.38;;;17.60;99.90;;;;;;5008983;28;20199;-80
2021/08/22 04:06:34;;;;;;;6.55;5.90;;;17.60;99.90;;;;;;5011024;28;20538;-80
2021/08/22 04:09:01;;;;;;;5.68;5.18;;;17.60;99.90;;;;;;5009351;28;20608;-84
2021/08/22 04:11:28;;;;;;;5.43;4.93;;;17.60;99.90;;;;;;5010297;28;20211;-80
2021/08/22 04:13:55;;;;;;;4.93;4.53;;;17.60;99.90;;;;;;5016508;28;20218;-82
2021/08/22 04:16:22;;;;;;;5.05;4.60;;;17.60;99.90;;;;;;5029273;28;20206;-84
2021/08/22 04:18:49;;;;;;;5.43;4.63;;;17.60;99.90;;;;;;5029121;28;20201;-80
2021/08/22 04:21:16;;;;;;;4.35;3.95;;;17.60;99.90;;;;;;5021218;28;20452;-79
2021/08/22 04:23:44;;;;;;;5.47;4.97;;;17.60;99.90;;;;;;5008997;28;20219;-83
2021/08/22 04:26:11;;;;;;;7.38;5.20;;;17.60;99.90;;;;;;5009691;28;20235;-80
2021/08/22 04:28:38;;;;;;;6.15;4.45;;;17.60;99.90;;;;;;5009211;28;20533;-82
2021/08/22 04:31:05;;;;;;;5.10;4.18;;;17.60;99.90;;;;;;5010732;28;20246;-83
2021/08/22 04:33:32;;;;;;;4.90;3.92;;;17.60;99.90;;;;;;5030917;28;20610;-84
2021/08/22 04:35:58;;;;;;;4.80;4.30;;;17.60;99.90;;;;;;5030671;28;20206;-83
2021/08/22 04:38:25;;;;;;;4.20;3.90;;;17.60;99.90;;;;;;5031921;28;20773;-81
2021/08/22 04:40:54;;;;;;;4.78;4.38;;;17.60;99.90;;;;;;5030302;28;20218;-83
2021/08/22 04:43:20;;;;;;;5.80;5.00;;;17.60;99.90;;;;;;5030539;28;20246;-83
2021/08/22 04:45:47;;;;;;;5.85;4.50;;;17.60;99.90;;;;;;5029502;28;20536;-80
2021/08/22 04:48:14;;;;;;;5.97;4.32;;;17.60;99.90;;;;;;5029832;28;20238;-82
2021/08/22 04:50:41;;;;;;;5.35;4.85;;;17.60;99.90;;;;;;5020065;28;20518;-82
2021/08/22 04:53:07;;;;;;;6.15;4.57;;;17.60;99.90;;;;;;5011844;28;20211;-80
2021/08/22 04:55:34;;;;;;;5.70;4.55;;;17.60;99.90;;;;;;5018235;28;20219;-81
2021/08/22 04:58:02;;;;;;;6.75;5.03;;;17.50;99.90;;;;;;5016297;28;20499;-81
2021/08/22 05:00:29;;;;;;;5.32;4.82;;;17.50;99.90;;;;;;5015863;28;20207;-82
2021/08/22 05:02:56;;;;;;;4.07;3.70;;;17.60;99.90;;;;;;5033656;28;20237;-83
2021/08/22 05:05:23;;;;;;;4.43;4.03;;;17.60;99.90;;;;;;5029735;28;20198;-82
2021/08/22 05:07:50;;;;;;;4.45;4.13;;;17.60;99.90;;;;;;5029938;28;20264;-81
2021/08/22 05:10:17;;;;;;;3.72;3.42;;;17.60;99.90;;;;;;5029777;28;20286;-82
2021/08/22 05:12:44;;;;;;;4.82;3.90;;;17.60;99.90;;;;;;5011109;28;20234;-84
2021/08/22 05:15:12;;;;;;;4.22;3.92;;;17.50;99.90;;;;;;5009518;28;20242;-81
2021/08/22 05:17:39;;;;;;;4.53;4.13;;;17.50;99.90;;;;;;5009928;28;20207;-82
2021/08/22 05:20:08;;;;;;;4.60;4.20;;;17.50;99.90;;;;;;5008633;28;20214;-81
2021/08/22 05:22:34;;;;;;;5.07;4.57;;;17.50;99.90;;;;;;5008270;28;20238;-80
2021/08/22 05:25:01;;;;;;;5.15;4.65;;;17.40;99.90;;;;;;5008584;28;20203;-83
2021/08/22 05:27:28;;;;;;;4.97;4.43;;;17.40;99.90;;;;;;4989144;28;20199;-83
2021/08/22 05:29:55;;;;;;;5.07;4.57;;;17.50;99.90;;;;;;4988540;28;20639;-81
2021/08/22 05:32:23;;;;;;;4.50;4.10;;;17.50;99.90;;;;;;4989235;28;20222;-83
2021/08/22 05:34:50;;;;;;;4.75;4.20;;;17.50;99.90;;;;;;4988261;28;20674;-80
2021/08/22 05:37:17;;;;;;;4.45;4.05;;;17.60;99.90;;;;;;4988853;28;20204;-82
2021/08/22 05:39:43;;;;;;;4.90;4.00;;;17.60;99.90;;;;;;4988463;28;20208;-82
2021/08/22 05:42:10;;;;;;;4.55;4.15;;;17.60;99.90;;;;;;4988893;28;21074;-82
2021/08/22 05:44:37;;;;;;;5.65;4.68;;;17.60;99.90;;;;;;5004841;28;20203;-82
2021/08/22 05:47:04;;;;;;;5.13;4.70;;;17.70;99.90;;;;;;5009942;28;20488;-82
2021/08/22 05:49:32;;;;;;;4.20;3.88;;;17.70;99.90;;;;;;5009226;28;20203;-83
2021/08/22 05:51:59;;;;;;;5.55;4.72;;;17.70;99.90;;;;;;5008315;28;20210;-82
2021/08/22 05:54:26;;;;;;;4.50;4.07;;;17.70;99.90;;;;;;5009477;28;20207;-83
2021/08/22 05:56:53;;;;;;;6.53;4.45;;;17.80;99.90;;;;;;4989110;28;20208;-81
2021/08/22 05:59:19;;;;;;;4.10;3.70;;;17.80;99.90;;;;;;4989271;28;20207;-83
2021/08/22 06:01:46;;;;;;;5.38;4.70;;;17.80;99.90;;;;;;4988133;28;20200;-80
2021/08/22 06:04:13;;;;;;;5.90;4.13;;;17.80;99.90;;;;;;4989674;28;20211;-81
2021/08/22 06:06:41;;;;;;;4.03;3.60;;;17.90;99.90;;;;;;4988402;28;20199;-84
2021/08/22 06:09:08;;;;;;;4.07;3.70;;;17.90;99.90;;;;;;4988979;28;20199;-82
2021/08/22 06:11:35;;;;;;;4.03;3.63;;;17.90;99.90;;;;;;4988664;28;20306;-83
2021/08/22 06:14:01;;;;;;;4.00;3.60;;;17.90;99.90;;;;;;5027638;23;20748;-83
2021/08/22 06:16:29;;;;;;;4.40;3.88;;;17.90;99.90;;;;;;5028848;28;20199;-82
2021/08/22 06:18:56;;;;;;;4.82;4.13;;;18.00;99.90;;;;;;5010820;28;20207;-81
2021/08/22 06:21:23;;;;;;;3.75;3.35;;;18.00;99.90;;;;;;5008207;28;20206;-83
2021/08/22 06:23:51;;;;;;;4.88;3.67;;;18.00;99.90;;;;;;5012914;28;20245;-83
2021/08/22 06:26:18;;;;;;;3.70;3.30;;;18.10;99.90;;;;;;5007163;28;20210;-83
2021/08/22 06:28:45;;;;;;;4.32;3.92;;;18.10;99.90;;;;;;5007972;28;20204;-81
2021/08/22 06:31:11;;;;;;;3.58;3.28;;;18.10;99.90;;;;;;5007508;28;20658;-83
2021/08/22 06:33:38;;;;;;;3.33;3.13;;;18.20;99.90;;;;;;5007408;28;20269;-81
2021/08/22 06:36:06;;;;;;;3.83;3.33;;;18.20;99.90;;;;;;5008096;28;20622;-83
2021/08/22 06:38:33;;;;;;;3.70;3.40;;;18.30;99.90;;;;;;5006498;28;20207;-82
2021/08/22 06:41:01;;;;;;;4.15;3.72;;;18.30;99.90;;;;;;5008564;28;20199;-82
2021/08/22 06:43:28;;;;;;;3.65;3.33;;;18.30;99.90;;;;;;5009101;28;20227;-82
2021/08/22 06:45:55;;;;;;;4.78;4.28;;;18.40;99.90;;;;;;5006123;28;20214;-81
2021/08/22 06:48:22;;;;;;;5.68;4.85;;;18.40;99.90;;;;;;5008824;28;20230;-82
2021/08/22 06:50:49;;;;;;;4.05;3.65;;;18.40;99.90;;;;;;5006401;28;20506;-82
2021/08/22 06:53:16;;;;;;;4.78;3.83;;;18.40;99.90;;;;;;5007698;28;20206;-83
2021/08/22 06:55:43;;;;;;;10.07;5.43;;;18.40;99.90;;;;;;5007790;28;20213;-82
2021/08/22 06:58:43;;;;;;;4.97;3.72;;;18.40;99.90;;;;;;5007430;28;20218;-81
2021/08/22 07:01:11;;;;;;;4.47;3.63;;;18.40;99.90;;;;;;5011050;28;20201;-82
2021/08/22 07:03:38;;;;;;;4.47;3.38;;;18.40;99.90;;;;;;5008571;28;20237;-83
2021/08/22 07:06:05;;;;;;;3.88;3.47;;;18.40;99.90;;;;;;5009788;28;20206;-82
2021/08/22 07:08:31;;;;;;;4.13;3.72;;;18.40;99.90;;;;;;4998320;28;20215;-82
2021/08/22 07:10:58;;;;;;;3.30;3.03;;;18.40;99.90;;;;;;4988925;28;20211;-82
2021/08/22 07:13:25;;;;;;;5.10;3.78;;;18.40;99.90;;;;;;4989089;28;20234;-82
2021/08/22 07:15:57;;;;;;;5.03;3.75;;;18.40;99.90;;;;;;4982878;28;20204;-82
2021/08/22 07:18:24;;;;;;;4.40;3.28;;;18.50;99.90;;;;;;5007671;28;20218;-82
2021/08/22 07:20:51;;;;;;;3.45;3.05;;;18.40;99.90;;;;;;5006801;28;20291;-81
2021/08/22 07:23:17;;;;;;;6.50;2.92;;;18.40;99.90;;;;;;5007783;28;20524;-83
2021/08/22 07:25:45;;;;;;;5.63;3.00;;;18.40;99.90;;;;;;5007598;28;20604;-82
2021/08/22 07:28:12;;;;;;;4.13;2.88;;;18.40;99.90;;;;;;5008308;28;20544;-81
2021/08/22 07:30:38;;;;;;;3.97;2.60;;;18.40;99.90;;;;;;5007980;28;20222;-82
2021/08/22 07:33:06;;;;;;;2.92;2.60;;;18.40;99.90;;;;;;5006740;28;20203;-83
2021/08/22 07:35:33;;;;;;;3.80;2.83;;;18.40;99.90;;;;;;5003193;28;20219;-82
2021/08/22 07:38:00;;;;;;;4.97;2.53;;;18.40;99.90;;;;;;4990784;28;20594;-83
2021/08/22 07:40:27;;;;;;;2.75;2.53;;;18.40;99.90;;;;;;4998515;28;20215;-83
2021/08/22 07:42:54;;;;;;;3.75;2.90;;;18.40;99.90;;;;;;5011933;28;20259;-83
2021/08/22 07:45:20;;;;;;;3.15;2.85;;;18.50;99.90;;;;;;4992840;28;20208;-83
2021/08/22 07:47:47;;;;;;;3.30;2.90;;;18.40;99.90;;;;;;4991376;28;20751;-82
2021/08/22 07:50:15;;;;;;;5.13;3.03;;;18.50;99.90;;;;;;4992178;28;20219;-83
2021/08/22 07:52:42;;;;;;;5.68;3.00;;;18.50;99.90;;;;;;4999822;28;20211;-80
2021/08/22 07:55:11;;;;;;;4.20;3.10;;;18.60;99.90;;;;;;5010244;28;20222;-82
2021/08/22 07:57:38;;;;;;;3.47;2.92;;;18.60;99.90;;;;;;5011725;28;20501;-83
2021/08/22 08:00:05;;;;;;;3.33;2.70;;;18.50;99.90;;;;;;5011542;28;20207;-83
2021/08/22 08:02:32;;;;;;;5.88;3.05;;;18.60;99.90;;;;;;5012562;28;20897;-82
2021/08/22 08:04:59;;;;;;;4.82;3.03;;;18.60;99.90;;;;;;5013261;28;20419;-85
2021/08/22 08:07:27;;;;;;;3.60;2.80;;;18.60;99.90;;;;;;5011715;28;20591;-85
2021/08/22 08:09:55;;;;;;;9.88;3.65;;;18.60;99.90;;;;;;5012902;28;20195;-85
2021/08/22 08:12:22;;;;;;;4.78;3.25;;;18.70;99.90;;;;;;5013222;28;20493;-83
2021/08/22 08:14:49;;;;;;;3.67;3.35;;;18.70;99.90;;;;;;5012765;28;20199;-84
2021/08/22 08:17:15;;;;;;;5.63;3.35;;;18.80;99.90;;;;;;5009696;28;20208;-83
2021/08/22 08:19:42;;;;;;;7.18;3.28;;;18.90;99.90;;;;;;5011549;28;20198;-84
2021/08/22 08:22:10;;;;;;;4.15;3.08;;;18.90;99.90;;;;;;5012916;28;20227;-83
2021/08/22 08:24:38;;;;;;;4.45;3.10;;;19.00;99.90;;;;;;5014202;28;20215;-81
2021/08/22 08:27:05;;;;;;;3.83;3.28;;;19.00;99.90;;;;;;5018964;28;20207;-84
2021/08/22 08:29:32;;;;;;;3.67;3.28;;;19.10;99.90;;;;;;5015120;28;20230;-83
2021/08/22 08:31:59;;;;;;;4.82;3.20;;;19.10;99.90;;;;;;5012606;28;20203;-83
2021/08/22 08:34:26;;;;;;;3.47;3.17;;;19.20;99.90;;;;;;5010803;28;20290;-83
2021/08/22 08:36:53;;;;;;;3.10;2.90;;;19.30;99.90;;;;;;5011658;28;20206;-84
2021/08/22 08:39:19;;;;;;;3.50;3.20;;;19.30;99.90;;;;;;5010684;28;20667;-82
2021/08/22 08:41:48;;;;;;;3.50;3.20;;;19.40;99.90;;;;;;5012211;28;20206;-82
2021/08/22 08:44:15;;;;;;;2.83;2.60;;;19.50;99.90;;;;;;5010608;28;20242;-84
2021/08/22 08:46:45;;;;;;;5.60;3.20;;;19.50;99.90;;;;;;5011286;28;20230;-84
2021/08/22 08:49:13;;;;;;;3.22;3.00;;;19.60;99.90;;;;;;5009005;28;20616;-84
2021/08/22 08:51:56;;;;;;;2.88;2.60;;;19.80;99.90;;;;;;5000956;28;20200;-80
2021/08/22 08:54:26;;;;;;;4.78;3.40;;;19.90;99.90;;;;;;4990181;28;20211;-82
2021/08/22 08:56:55;;;;;;;4.35;3.15;;;20.00;99.90;;;;;;4989390;28;20208;-84
2021/08/22 08:59:21;;;;;;;3.33;3.10;;;20.20;99.90;;;;;;5002731;28;20215;-84
2021/08/22 09:01:48;;;;;;;5.10;2.58;;;20.20;99.90;;;;;;5009550;28;20195;-84
2021/08/22 09:04:20;;;;;;;5.38;2.60;;;20.30;99.90;;;;;;5009341;28;20227;-84
2021/08/22 09:07:28;;;;;;;4.20;2.83;;;20.30;99.90;;;;;;5007063;28;20553;-83
2021/08/22 09:10:32;;;;;;;3.38;2.70;;;20.40;99.90;;;;;;4990585;28;20224;-81
2021/08/22 09:13:39;;;;;;;5.03;3.10;;;20.50;99.90;;;;;;5000067;28;20574;-80
2021/08/22 09:16:43;;;;;;;6.13;2.35;;;20.60;99.90;;;;;;5010629;28;20195;-80
2021/08/22 09:19:56;;;;;;;4.60;2.65;;;20.60;99.90;;;;;;5011808;28;20199;-83
2021/08/22 09:22:56;;;;;;;4.70;2.72;;;20.70;99.90;;;;;;5020358;28;20214;-84
2021/08/22 09:26:03;;;;;;;5.35;3.08;;;20.70;99.90;;;;;;5031471;28;20572;-88
2021/08/22 09:29:12;;;;;;;2.88;2.47;;;20.70;99.90;;;;;;4986327;28;20209;-85
2021/08/22 09:32:31;;;;;;;3.97;2.50;;;20.80;99.90;;;;;;5011257;28;20199;-89
2021/08/22 09:35:34;;;;;;;4.05;2.50;;;20.90;99.90;;;;;;4951591;28;20209;-87
2021/08/22 09:38:36;;;;;;;3.35;2.70;;;20.90;99.90;;;;;;4970649;28;20299;-87
2021/08/22 09:41:39;;;;;;;3.22;2.30;;;21.00;99.90;;;;;;5022139;28;20213;-83
2021/08/22 09:44:46;;;;;;;4.53;3.78;;;21.10;99.90;;;;;;4998769;28;20229;-86
2021/08/22 09:47:59;;;;;;;3.65;2.70;;;21.10;99.90;;;;;;5014961;28;20593;-86
2021/08/22 09:51:18;;;;;;;4.07;2.28;;;21.10;99.90;;;;;;4984984;28;20208;-86
2021/08/22 09:54:42;;;;;;;3.30;2.20;;;21.10;99.90;;;;;;4968475;28;20220;-86
2021/08/22 09:57:42;;;;;;;2.10;1.95;;;21.00;99.90;;;;;;4969838;28;20844;-82
2021/08/22 10:00:28;;;;;;;3.60;2.65;;;21.00;99.90;;;;;;5029131;28;20297;-84
2021/08/22 10:03:06;;;;;;;2.97;2.55;;;21.10;99.90;;;;;;5027763;28;20577;-82
2021/08/22 10:06:07;;;;;;;4.60;2.53;;;21.30;99.90;;;;;;5028100;28;20206;-82
2021/08/22 10:08:44;;;;;;;2.83;2.22;;;21.50;99.90;;;;;;5024776;28;20205;-83
2021/08/22 10:11:16;;;;;;;2.65;1.67;;;21.80;99.90;;;;;;5029265;28;20211;-85
2021/08/22 10:13:42;;;;;;;2.60;2.30;;;21.90;99.90;;;;;;5036274;28;20531;-83
2021/08/22 10:16:09;;;;;;;2.55;2.00;;;22.10;99.90;;;;;;5032134;28;20202;-83
2021/08/22 10:18:37;;;;;;;4.75;2.35;;;22.20;99.90;;;;;;5033053;28;20206;-83
2021/08/22 10:21:07;;;;;;;5.38;3.72;;;22.30;99.90;;;;;;5029075;28;20206;-83
2021/08/22 10:23:53;;;;;;;5.63;3.72;;;22.40;99.90;;;;;;5030930;28;20653;-83
2021/08/22 10:26:48;;;;;;;3.20;2.50;;;22.50;99.90;;;;;;5009283;28;20206;-83
2021/08/22 10:29:21;;;;;;;2.95;2.15;;;22.60;99.90;;;;;;5026787;28;20198;-85
2021/08/22 10:32:11;;;;;;;2.47;2.05;;;22.70;99.90;;;;;;5025404;28;20221;-84
2021/08/22 10:34:39;;;;;;;3.35;2.10;;;22.80;99.90;;;;;;5027006;28;20298;-85
2021/08/22 10:37:30;;;;;;;4.05;1.88;;;22.80;99.90;;;;;;5027097;28;20219;-83
2021/08/22 10:39:59;;;;;;;2.03;1.58;;;22.90;99.90;;;;;;5013505;28;20202;-83
2021/08/22 10:42:28;;;;;;;2.55;1.85;;;23.00;99.90;;;;;;5019763;28;20207;-82
2021/08/22 10:44:55;;;;;;;1.73;1.63;;;23.20;99.90;;;;;;5007985;28;20231;-85
2021/08/22 10:47:43;;;;;;;4.05;2.47;;;23.30;99.90;;;;;;5008375;28;20235;-85
2021/08/22 10:50:11;;;;;;;2.53;1.85;;;23.30;99.90;;;;;;5007869;28;20207;-85
2021/08/22 10:52:40;;;;;;;3.45;2.10;;;23.30;99.90;;;;;;5007489;28;20191;-85
2021/08/22 10:55:29;;;;;;;2.92;1.75;;;23.20;99.90;;;;;;5007496;28;20227;-86
2021/08/22 10:57:58;;;;;;;2.10;1.85;;;23.00;99.90;;;;;;5007009;28;20207;-84
2021/08/22 11:00:26;;;;;;;2.95;1.50;;;22.90;99.90;;;;;;5018615;28;20608;-80
2021/08/22 11:02:53;;;;;;;2.03;1.45;;;22.80;99.90;;;;;;5027366;28;20595;-80
2021/08/22 11:05:21;;;;;;;2.03;1.48;;;22.80;99.90;;;;;;5027397;28;20781;-81
2021/08/22 11:07:51;;;;;;;3.60;2.08;;;22.80;99.90;;;;;;5028146;28;20199;-81
2021/08/22 11:10:19;;;;;;;1.98;1.50;;;22.80;99.90;;;;;;5029012;28;20191;-83
2021/08/22 11:12:46;;;;;;;2.85;1.80;;;22.80;99.90;;;;;;5030884;28;20234;-86
2021/08/22 11:15:25;;;;;;;3.83;1.90;;;22.80;99.90;;;;;;5032445;28;20245;-82
2021/08/22 11:17:53;;;;;;;8.88;3.75;;;22.90;99.90;;;;;;5017347;28;20280;-82
2021/08/22 11:20:23;;;;;;;3.55;1.65;;;22.80;99.90;;;;;;5016026;28;20614;-82
2021/08/22 11:22:55;;;;;;;1.48;1.25;;;22.80;99.90;;;;;;5031408;28;20588;-81
2021/08/22 11:25:26;;;;;;;2.30;1.55;;;22.60;99.90;;;;;;5031570;28;20225;-81
2021/08/22 11:28:04;;;;;;;2.95;1.40;;;22.50;99.90;;;;;;5032095;28;20575;-82
2021/08/22 11:30:32;;;;;;;2.33;1.80;;;22.50;99.90;;;;;;5032244;28;20594;-81
2021/08/22 11:33:00;;;;;;;2.20;1.45;;;22.30;99.90;;;;;;5031971;28;20210;-80
2021/08/22 11:35:27;;;;;;;4.63;1.50;;;22.30;99.90;;;;;;5014802;28;20211;-84
2021/08/22 11:37:55;;;;;;;3.20;1.60;;;22.20;99.90;;;;;;5018714;28;20210;-83
2021/08/22 11:40:24;;;;;;;4.60;2.25;;;22.10;99.90;;;;;;5032331;28;20216;-84
2021/08/22 11:42:52;;;;;;;3.08;2.13;;;22.10;99.90;;;;;;5031449;28;20238;-82
2021/08/22 11:45:20;;;;;;;3.65;1.98;;;22.00;99.90;;;;;;5032146;28;20238;-81
2021/08/22 11:47:49;;;;;;;4.10;2.40;;;22.00;99.90;;;;;;5030264;28;20206;-82
2021/08/22 11:50:23;;;;;;;1.70;1.50;;;22.00;99.90;;;;;;5031946;28;20456;-82
2021/08/22 11:52:53;;;;;;;1.50;1.40;;;22.10;99.90;;;;;;5032165;28;20828;-83
2021/08/22 11:55:21;;;;;;;1.17;0.95;;;22.10;99.90;;;;;;5020148;28;20218;-83
2021/08/22 11:57:48;;;;;;;2.13;1.60;;;22.10;99.90;;;;;;5012113;28;20200;-82
2021/08/22 12:00:19;;;;;;;1.65;1.50;;;22.00;99.90;;;;;;5012122;28;20203;-85
2021/08/22 12:02:58;;;;;;;1.77;1.65;;;21.90;99.90;;;;;;5015378;28;20391;-82
2021/08/22 12:05:26;;;;;;;3.55;2.10;;;21.90;99.90;;;;;;5031704;28;20285;-83
2021/08/22 12:08:04;;;;;;;4.68;2.63;;;21.90;99.90;;;;;;5032404;28;20269;-84
2021/08/22 12:10:31;;;;;;;3.17;2.20;;;21.80;99.90;;;;;;5032605;28;20183;-83
2021/08/22 12:13:00;;;;;;;3.80;2.00;;;21.70;99.90;;;;;;5032327;28;20669;-83
2021/08/22 12:15:31;;;;;;;4.35;2.28;;;21.80;99.90;;;;;;5012605;28;20521;-82
2021/08/22 12:18:32;;;;;;;3.20;1.88;;;21.70;99.90;;;;;;5012899;28;20614;-83
2021/08/22 12:21:15;;;;;;;2.95;1.73;;;21.60;99.90;;;;;;5013635;28;20215;-82
2021/08/22 12:23:43;;;;;;;4.38;2.20;;;21.60;99.90;;;;;;5029422;28;20353;-82
2021/08/22 12:26:24;;;;;;;3.63;2.50;;;21.50;99.90;;;;;;5032761;28;20214;-84
2021/08/22 12:28:52;;;;;;;4.60;2.15;;;21.50;99.90;;;;;;5031345;28;20274;-84
2021/08/22 12:31:20;;;;;;;3.40;2.42;;;21.50;99.90;;;;;;5031349;28;20226;-85
2021/08/22 12:33:49;;;;;;;3.08;2.30;;;21.50;99.90;;;;;;5030066;28;20209;-83
2021/08/22 12:36:18;;;;;;;2.70;2.00;;;21.40;99.90;;;;;;5031065;28;20591;-82
2021/08/22 12:38:47;;;;;;;4.63;2.35;;;21.40;99.90;;;;;;5032006;28;20210;-82
2021/08/22 12:41:42;;;;;;;2.95;2.10;;;21.40;99.90;;;;;;5030511;28;20210;-80
2021/08/22 12:44:10;;;;;;;2.83;1.70;;;21.40;99.90;;;;;;5031076;28;20214;-81
2021/08/22 12:46:38;;;;;;;3.15;1.50;;;21.40;99.90;;;;;;5030860;28;20195;-83
2021/08/22 12:49:08;;;;;;;2.13;1.55;;;21.30;99.90;;;;;;5030969;28;20615;-83
2021/08/22 12:51:37;;;;;;;2.45;1.40;;;21.20;99.90;;;;;;5030565;28;20213;-83
2021/08/22 12:54:06;;;;;;;2.83;1.25;;;21.20;99.90;;;;;;5030482;28;20551;-83
2021/08/22 12:56:32;;;;;;;4.75;1.45;;;21.10;99.90;;;;;;5030889;28;20206;-83
2021/08/22 12:59:00;;;;;;;3.40;1.25;;;21.10;99.90;;;;;;5029843;28;20206;-82
2021/08/22 13:01:27;;;;;;;3.30;2.00;;;21.10;99.90;;;;;;5031698;28;20203;-85
2021/08/22 13:03:56;;;;;;;4.97;1.92;;;21.20;99.90;;;;;;5021156;28;20261;-83
2021/08/22 13:06:25;;;;;;;2.90;1.95;;;21.30;99.90;;;;;;5011877;28;20199;-84